createdAt,value
2024-01-15T00:00:24.883Z,651.00
2024-01-15T00:01:23.910Z,654.00
2024-01-15T00:02:23.903Z,652.00
2024-01-15T00:03:23.987Z,660.00
2024-01-15T00:57:58.576Z,658.00
2024-01-15T00:58:24.303Z,660.00
2024-01-15T00:59:24.302Z,716.00
2024-01-15T01:00:24.327Z,829.00
2024-01-15T01:01:24.379Z,973.00
2024-01-15T01:02:24.303Z,1128.00
2024-01-15T01:03:24.393Z,1195.00
2024-01-15T01:04:24.363Z,1154.00
2024-01-15T01:05:24.468Z,1100.00
2024-01-15T01:06:24.904Z,1044.00
2024-01-15T01:07:24.889Z,995.00
2024-01-15T01:08:24.869Z,959.00
2024-01-15T01:09:24.883Z,945.00
2024-01-15T01:10:24.875Z,913.00
2024-01-15T01:11:24.886Z,892.00
2024-01-15T01:12:24.882Z,861.00
2024-01-15T01:13:24.961Z,838.00
2024-01-15T01:14:25.021Z,815.00
2024-01-15T01:15:25.082Z,801.00
2024-01-15T01:16:25.135Z,794.00
2024-01-15T01:17:25.298Z,775.00
2024-01-15T01:18:25.490Z,772.00
2024-01-15T01:19:25.486Z,748.00
2024-01-15T01:20:25.503Z,737.00
2024-01-15T01:21:25.532Z,731.00
2024-01-15T01:22:25.901Z,722.00
2024-01-15T01:23:25.881Z,728.00
2024-01-15T01:24:25.954Z,717.00
2024-01-15T01:25:25.944Z,717.00
2024-01-15T01:26:25.886Z,709.00
2024-01-15T01:27:25.900Z,706.00
2024-01-15T01:28:25.930Z,728.00
2024-01-15T01:29:26.027Z,726.00
2024-01-15T01:30:26.151Z,707.00
2024-01-15T01:31:26.224Z,704.00
2024-01-15T01:32:26.291Z,702.00
2024-01-15T01:33:26.370Z,696.00
2024-01-15T01:34:26.485Z,705.00
2024-01-15T01:35:26.410Z,703.00
2024-01-15T01:36:26.513Z,689.00
2024-01-15T01:37:26.554Z,686.00
2024-01-15T01:38:26.648Z,690.00
2024-01-15T01:39:26.673Z,680.00
2024-01-15T01:40:26.738Z,678.00
2024-01-15T01:41:26.803Z,672.00
2024-01-15T01:42:26.866Z,669.00
2024-01-15T01:43:26.931Z,670.00
2024-01-15T01:44:26.995Z,671.00
2024-01-15T01:45:27.116Z,670.00
2024-01-15T01:46:27.136Z,670.00
2024-01-15T01:47:27.216Z,678.00
2024-01-15T01:48:27.459Z,662.00
2024-01-15T01:49:27.460Z,679.00
2024-01-15T01:50:27.403Z,671.00
2024-01-15T01:51:27.527Z,665.00
2024-01-15T01:52:27.545Z,659.00
2024-01-15T01:53:27.592Z,659.00
2024-01-15T01:54:27.684Z,660.00
2024-01-15T01:55:27.755Z,661.00
2024-01-15T01:56:27.799Z,661.00
2024-01-15T01:57:27.895Z,659.00
2024-01-15T01:58:27.935Z,661.00
2024-01-15T01:59:28.003Z,657.00
2024-01-15T02:00:28.137Z,660.00
2024-01-15T02:01:28.184Z,656.00
2024-01-15T02:02:28.302Z,658.00
2024-01-15T02:03:28.352Z,657.00
2024-01-15T02:04:28.426Z,660.00
2024-01-15T02:05:28.411Z,653.00
2024-01-15T02:06:28.675Z,653.00
2024-01-15T02:07:28.563Z,661.00
2024-01-15T02:08:28.628Z,656.00
2024-01-15T02:09:28.714Z,657.00
2024-01-15T02:10:28.760Z,655.00
2024-01-15T02:11:28.819Z,654.00
2024-01-15T02:12:28.917Z,657.00
2024-01-15T02:13:29.582Z,659.00
2024-01-15T02:14:29.021Z,658.00
2024-01-15T02:15:29.589Z,654.00
2024-01-15T02:16:29.154Z,655.00
2024-01-15T02:17:29.318Z,656.00
2024-01-15T02:18:29.356Z,663.00
2024-01-15T02:19:29.493Z,653.00
2024-01-15T02:20:29.431Z,659.00
2024-01-15T02:21:29.552Z,653.00
2024-01-15T02:22:29.558Z,655.00
2024-01-15T02:23:30.921Z,654.00
2024-01-15T02:24:29.761Z,652.00
2024-01-15T02:25:29.769Z,649.00
2024-01-15T02:26:29.840Z,652.00
2024-01-15T02:27:29.932Z,652.00
2024-01-15T02:28:29.980Z,648.00
2024-01-15T02:29:30.055Z,653.00
2024-01-15T02:30:30.232Z,657.00
2024-01-15T02:31:30.371Z,653.00
2024-01-15T02:32:30.326Z,655.00
2024-01-15T02:33:30.495Z,654.00
2024-01-15T02:34:30.484Z,661.00
2024-01-15T02:35:30.464Z,659.00
2024-01-15T02:36:30.928Z,650.00
2024-01-15T02:37:30.918Z,650.00
2024-01-15T02:38:30.913Z,654.00
2024-01-15T02:39:31.953Z,654.00
2024-01-15T02:40:30.912Z,654.00
2024-01-15T02:41:30.921Z,652.00
2024-01-15T02:42:31.006Z,650.00
2024-01-15T02:43:31.958Z,652.00
2024-01-15T02:44:31.126Z,653.00
2024-01-15T02:45:31.282Z,649.00
2024-01-15T02:46:31.258Z,645.00
2024-01-15T02:47:31.331Z,652.00
2024-01-15T02:48:31.437Z,648.00
2024-01-15T02:49:31.542Z,652.00
2024-01-15T02:50:31.497Z,652.00
2024-01-15T02:51:31.977Z,652.00
2024-01-15T02:52:32.595Z,653.00
2024-01-15T02:53:31.939Z,648.00
2024-01-15T02:54:31.933Z,648.00
2024-01-15T02:55:31.939Z,649.00
2024-01-15T02:56:31.930Z,648.00
2024-01-15T02:57:31.995Z,650.00
2024-01-15T02:58:32.041Z,650.00
2024-01-15T02:59:32.107Z,654.00
2024-01-15T03:00:32.207Z,644.00
2024-01-15T03:01:32.284Z,650.00
2024-01-15T03:02:32.324Z,649.00
2024-01-15T03:03:32.461Z,655.00
2024-01-15T03:04:32.537Z,651.00
2024-01-15T03:05:33.155Z,647.00
2024-01-15T03:06:32.600Z,649.00
2024-01-15T03:07:32.633Z,645.00
2024-01-15T03:08:32.691Z,649.00
2024-01-15T03:09:32.799Z,648.00
2024-01-15T03:10:32.825Z,655.00
2024-01-15T03:11:32.940Z,645.00
2024-01-15T03:12:33.025Z,649.00
2024-01-15T03:13:33.046Z,647.00
2024-01-15T03:14:33.104Z,649.00
2024-01-15T03:15:33.236Z,649.00
2024-01-15T03:16:33.274Z,644.00
2024-01-15T03:17:33.378Z,645.00
2024-01-15T03:18:34.417Z,645.00
2024-01-15T03:19:33.597Z,651.00
2024-01-15T03:20:33.517Z,646.00
2024-01-15T03:21:33.640Z,649.00
2024-01-15T03:22:33.634Z,642.00
2024-01-15T03:23:33.702Z,647.00
2024-01-15T03:24:33.820Z,643.00
2024-01-15T03:25:33.840Z,648.00
2024-01-15T03:26:33.912Z,648.00
2024-01-15T03:27:34.046Z,644.00
2024-01-15T03:28:34.059Z,646.00
2024-01-15T03:29:34.121Z,644.00
2024-01-15T03:30:34.272Z,642.00
2024-01-15T03:31:34.421Z,646.00
2024-01-15T03:32:34.381Z,647.00
2024-01-15T03:33:34.465Z,643.00
2024-01-15T03:34:34.563Z,647.00
2024-01-15T03:35:34.523Z,642.00
2024-01-15T03:36:34.638Z,651.00
2024-01-15T03:37:34.707Z,645.00
2024-01-15T03:38:34.727Z,642.00
2024-01-15T03:39:34.891Z,642.00
2024-01-15T03:40:35.059Z,642.00
2024-01-15T03:41:34.945Z,647.00
2024-01-15T03:42:35.102Z,642.00
2024-01-15T03:43:35.081Z,643.00
2024-01-15T03:44:35.167Z,643.00
2024-01-15T03:45:35.259Z,645.00
2024-01-15T03:46:35.300Z,642.00
2024-01-15T03:47:35.377Z,644.00
2024-01-15T03:48:35.568Z,644.00
2024-01-15T03:49:35.549Z,639.00
2024-01-15T03:50:35.564Z,642.00
2024-01-15T03:51:35.701Z,646.00
2024-01-15T03:52:35.793Z,649.00
2024-01-15T03:53:35.795Z,638.00
2024-01-15T03:54:35.868Z,643.00
2024-01-15T03:55:35.909Z,638.00
2024-01-15T03:56:35.989Z,643.00
2024-01-15T03:57:36.110Z,640.00
2024-01-15T03:58:36.119Z,640.00
2024-01-15T03:59:36.192Z,642.00
2024-01-15T04:00:36.319Z,646.00
2024-01-15T04:01:36.340Z,641.00
2024-01-15T04:02:43.141Z,646.00
2024-01-15T04:03:36.481Z,646.00
2024-01-15T04:04:36.572Z,646.00
2024-01-15T04:05:36.429Z,643.00
2024-01-15T04:06:36.635Z,643.00
2024-01-15T04:07:36.403Z,643.00
2024-01-15T04:08:36.403Z,639.00
2024-01-15T04:09:36.470Z,645.00
2024-01-15T04:10:36.401Z,645.00
2024-01-15T04:11:36.416Z,649.00
2024-01-15T04:12:36.516Z,639.00
2024-01-15T04:13:36.992Z,641.00
2024-01-15T04:14:36.462Z,642.00
2024-01-15T04:15:36.586Z,648.00
2024-01-15T04:16:36.970Z,645.00
2024-01-15T04:17:36.997Z,641.00
2024-01-15T04:18:37.091Z,646.00
2024-01-15T04:19:37.030Z,642.00
2024-01-15T04:20:36.973Z,640.00
2024-01-15T04:21:37.013Z,643.00
2024-01-15T04:22:37.060Z,644.00
2024-01-15T04:23:37.091Z,645.00
2024-01-15T04:24:37.288Z,643.00
2024-01-15T04:25:37.268Z,642.00
2024-01-15T04:26:37.329Z,642.00
2024-01-15T04:27:37.408Z,640.00
2024-01-15T04:28:37.450Z,639.00
2024-01-15T04:29:40.932Z,644.00
2024-01-15T04:30:37.636Z,638.00
2024-01-15T04:31:37.770Z,646.00
2024-01-15T04:32:37.558Z,645.00
2024-01-15T04:33:37.666Z,645.00
2024-01-15T04:34:37.815Z,643.00
2024-01-15T04:35:37.521Z,642.00
2024-01-15T04:36:37.582Z,641.00
2024-01-15T04:37:37.524Z,641.00
2024-01-15T04:38:37.528Z,643.00
2024-01-15T04:39:37.598Z,637.00
2024-01-15T04:40:45.086Z,600.00
2024-01-15T04:41:46.100Z,600.00
2024-01-15T04:42:46.112Z,600.00
2024-01-15T04:43:46.066Z,600.00
2024-01-15T04:44:46.105Z,600.00
2024-01-15T04:45:46.138Z,603.00
2024-01-15T04:46:46.122Z,600.00
2024-01-15T04:47:46.125Z,608.00
2024-01-15T04:48:46.171Z,606.00
2024-01-15T04:49:46.187Z,605.00
2024-01-15T04:50:46.127Z,605.00
2024-01-15T04:51:46.214Z,609.00
2024-01-15T04:52:46.178Z,603.00
2024-01-15T04:53:46.123Z,611.00
2024-01-15T04:54:46.207Z,602.00
2024-01-15T04:55:46.119Z,603.00
2024-01-15T04:56:46.219Z,610.00
2024-01-15T04:57:46.294Z,603.00
2024-01-15T04:58:46.272Z,601.00
2024-01-15T04:59:46.351Z,608.00
2024-01-15T05:00:46.499Z,602.00
2024-01-15T05:01:46.525Z,602.00
2024-01-15T05:02:46.714Z,605.00
2024-01-15T05:03:46.907Z,611.00
2024-01-15T05:04:46.675Z,604.00
2024-01-15T05:05:46.772Z,611.00
2024-01-15T05:06:46.862Z,611.00
2024-01-15T05:07:46.901Z,609.00
2024-01-15T05:08:46.975Z,613.00
2024-01-15T05:09:47.155Z,603.00
2024-01-15T05:10:47.114Z,605.00
2024-01-15T05:11:47.186Z,603.00
2024-01-15T05:12:47.413Z,610.00
2024-01-15T05:13:47.344Z,607.00
2024-01-15T05:14:47.404Z,606.00
2024-01-15T05:15:47.530Z,606.00
2024-01-15T05:16:47.549Z,613.00
2024-01-15T05:17:47.695Z,602.00
2024-01-15T05:18:47.763Z,600.00
2024-01-15T05:19:47.796Z,605.00
2024-01-15T05:20:47.838Z,604.00
2024-01-15T05:21:47.968Z,604.00
2024-01-15T05:22:47.939Z,605.00
2024-01-15T05:23:48.031Z,612.00
2024-01-15T05:24:48.117Z,604.00
2024-01-15T05:25:48.156Z,603.00
2024-01-15T05:26:48.250Z,610.00
2024-01-15T05:27:48.336Z,607.00
2024-01-15T05:28:48.373Z,607.00
2024-01-15T05:29:48.423Z,605.00
2024-01-15T05:30:51.227Z,603.00
2024-01-15T05:31:48.695Z,606.00
2024-01-15T05:32:48.515Z,604.00
2024-01-15T05:33:48.601Z,604.00
2024-01-15T05:34:48.699Z,602.00
2024-01-15T05:35:48.496Z,603.00
2024-01-15T05:36:48.687Z,605.00
2024-01-15T05:37:48.537Z,603.00
2024-01-15T05:38:48.497Z,605.00
2024-01-15T05:39:48.527Z,609.00
2024-01-15T05:40:48.494Z,608.00
2024-01-15T05:41:48.504Z,605.00
2024-01-15T05:42:48.696Z,607.00
2024-01-15T05:43:48.513Z,604.00
2024-01-15T05:44:48.520Z,604.00
2024-01-15T05:45:48.534Z,600.00
2024-01-15T05:46:48.505Z,603.00
2024-01-15T05:47:48.599Z,603.00
2024-01-15T05:48:48.641Z,604.00
2024-01-15T05:49:49.109Z,606.00
2024-01-15T05:50:49.060Z,608.00
2024-01-15T05:51:49.115Z,607.00
2024-01-15T05:52:49.027Z,605.00
2024-01-15T05:53:51.848Z,606.00
2024-01-15T05:54:49.206Z,603.00
2024-01-15T05:55:49.042Z,607.00
2024-01-15T05:56:49.024Z,604.00
2024-01-15T05:57:49.143Z,605.00
2024-01-15T05:58:49.045Z,600.00
2024-01-15T05:59:49.081Z,605.00
2024-01-15T06:00:49.115Z,607.00
2024-01-15T06:01:49.054Z,606.00
2024-01-15T06:02:50.028Z,604.00
2024-01-15T06:03:49.165Z,604.00
2024-01-15T06:04:49.170Z,607.00
2024-01-15T06:05:49.099Z,600.00
2024-01-15T06:06:49.076Z,604.00
2024-01-15T06:07:49.059Z,602.00
2024-01-15T06:08:49.107Z,603.00
2024-01-15T06:09:49.334Z,604.00
2024-01-15T06:10:49.173Z,602.00
2024-01-15T06:11:49.206Z,605.00
2024-01-15T06:12:49.330Z,603.00
2024-01-15T06:13:49.288Z,607.00
2024-01-15T06:14:49.315Z,607.00
2024-01-15T06:15:50.157Z,605.00
2024-01-15T06:16:49.483Z,604.00
2024-01-15T06:17:49.639Z,604.00
2024-01-15T06:18:49.831Z,604.00
2024-01-15T06:19:50.149Z,605.00
2024-01-15T06:20:50.220Z,602.00
2024-01-15T06:21:50.118Z,603.00
2024-01-15T06:22:50.047Z,604.00
2024-01-15T06:23:50.056Z,607.00
2024-01-15T06:24:50.098Z,607.00
2024-01-15T06:25:50.218Z,608.00
2024-01-15T06:26:50.114Z,610.00
2024-01-15T06:27:50.393Z,605.00
2024-01-15T06:28:50.254Z,604.00
2024-01-15T06:29:51.272Z,609.00
2024-01-15T06:30:51.342Z,606.00
2024-01-15T06:31:50.768Z,605.00
2024-01-15T06:32:50.600Z,603.00
2024-01-15T06:33:50.678Z,608.00
2024-01-15T06:34:50.690Z,601.00
2024-01-15T06:35:50.699Z,606.00
2024-01-15T06:36:51.003Z,614.00
2024-01-15T06:37:51.217Z,600.00
2024-01-15T06:38:50.923Z,608.00
2024-01-15T06:39:51.054Z,606.00
2024-01-15T06:40:53.995Z,602.00
2024-01-15T06:41:51.041Z,592.00
2024-01-15T06:42:51.081Z,593.00
2024-01-15T06:43:51.045Z,592.00
2024-01-15T06:44:51.051Z,589.00
2024-01-15T06:45:51.897Z,583.00
2024-01-15T06:46:51.583Z,599.00
2024-01-15T06:47:51.111Z,602.00
2024-01-15T06:48:51.218Z,600.00
2024-01-15T06:49:51.189Z,601.00
2024-01-15T06:50:51.810Z,604.00
2024-01-15T06:51:51.101Z,601.00
2024-01-15T06:52:51.206Z,601.00
2024-01-15T06:53:51.052Z,600.00
2024-01-15T06:54:51.839Z,604.00
2024-01-15T06:55:51.256Z,606.00
2024-01-15T06:56:51.230Z,610.00
2024-01-15T06:57:51.316Z,603.00
2024-01-15T06:58:51.237Z,604.00
2024-01-15T06:59:51.298Z,604.00
2024-01-15T07:00:51.821Z,609.00
2024-01-15T07:01:51.487Z,612.00
2024-01-15T07:02:51.511Z,616.00
2024-01-15T07:03:52.698Z,615.00
2024-01-15T07:04:54.907Z,621.00
2024-01-15T07:05:52.094Z,621.00
2024-01-15T07:06:52.117Z,621.00
2024-01-15T07:07:51.638Z,620.00
2024-01-15T07:09:23.490Z,618.00
2024-01-15T07:09:51.743Z,621.00
2024-01-15T07:10:51.625Z,622.00
2024-01-15T07:11:52.133Z,622.00
2024-01-15T07:12:51.720Z,623.00
2024-01-15T07:13:51.664Z,624.00
2024-01-15T07:14:51.680Z,623.00
2024-01-15T07:15:52.296Z,627.00
2024-01-15T07:16:52.134Z,630.00
2024-01-15T07:17:51.754Z,633.00
2024-01-15T07:18:51.801Z,640.00
2024-01-15T07:19:51.707Z,638.00
2024-01-15T07:20:51.687Z,642.00
2024-01-15T07:21:54.765Z,644.00
2024-01-15T07:22:51.641Z,644.00
2024-01-15T07:23:51.635Z,645.00
2024-01-15T07:24:51.690Z,646.00
2024-01-15T07:25:52.098Z,646.00
2024-01-15T07:26:51.641Z,653.00
2024-01-15T07:27:52.768Z,651.00
2024-01-15T07:28:51.651Z,656.00
2024-01-15T07:29:51.647Z,656.00
2024-01-15T07:30:52.188Z,656.00
2024-01-15T07:31:51.899Z,662.00
2024-01-15T07:32:51.764Z,662.00
2024-01-15T07:33:51.708Z,663.00
2024-01-15T07:34:51.720Z,665.00
2024-01-15T07:35:52.098Z,664.00
2024-01-15T07:36:52.229Z,673.00
2024-01-15T07:37:51.655Z,679.00
2024-01-15T07:38:52.247Z,687.00
2024-01-15T07:39:51.772Z,698.00
2024-01-15T07:40:51.700Z,702.00
2024-01-15T07:41:52.092Z,705.00
2024-01-15T07:42:51.768Z,711.00
2024-01-15T07:43:51.669Z,717.00
2024-01-15T07:44:51.666Z,718.00
2024-01-15T07:45:51.710Z,719.00
2024-01-15T07:46:52.098Z,731.00
2024-01-15T07:47:52.236Z,728.00
2024-01-15T07:48:52.234Z,736.00
2024-01-15T07:49:52.228Z,744.00
2024-01-15T07:50:52.129Z,741.00
2024-01-15T07:51:52.360Z,736.00
2024-01-15T07:52:52.173Z,744.00
2024-01-15T07:53:52.126Z,740.00
2024-01-15T07:54:52.214Z,743.00
2024-01-15T07:55:52.261Z,737.00
2024-01-15T07:56:52.119Z,738.00
2024-01-15T07:57:59.039Z,750.00
2024-01-15T07:58:52.008Z,750.00
2024-01-15T07:59:52.802Z,750.00
2024-01-15T08:00:52.048Z,745.00
2024-01-15T08:01:52.068Z,740.00
2024-01-15T08:02:52.290Z,747.00
2024-01-15T08:03:52.893Z,734.00
2024-01-15T08:04:52.107Z,733.00
2024-01-15T08:05:52.040Z,725.00
2024-01-15T08:06:52.331Z,732.00
2024-01-15T08:07:51.976Z,713.00
2024-01-15T08:08:51.994Z,718.00
2024-01-15T08:09:51.997Z,709.00
2024-01-15T08:10:52.777Z,704.00
2024-01-15T08:11:53.293Z,697.00
2024-01-15T08:12:52.065Z,695.00
2024-01-15T08:13:51.983Z,687.00
2024-01-15T08:14:51.980Z,684.00
2024-01-15T08:15:52.043Z,691.00
2024-01-15T08:16:52.270Z,685.00
2024-01-15T08:17:52.118Z,677.00
2024-01-15T08:18:52.366Z,674.00
2024-01-15T08:19:55.403Z,676.00
2024-01-15T08:20:52.155Z,677.00
2024-01-15T08:21:52.137Z,677.00
2024-01-15T08:22:52.282Z,678.00
2024-01-15T08:23:52.121Z,683.00
2024-01-15T08:24:52.679Z,679.00
2024-01-15T08:25:52.130Z,683.00
2024-01-15T08:26:52.141Z,682.00
2024-01-15T08:27:52.314Z,683.00
2024-01-15T08:28:53.138Z,674.00
2024-01-15T08:29:52.142Z,683.00
2024-01-15T08:30:52.206Z,685.00
2024-01-15T08:31:52.457Z,674.00
2024-01-15T08:32:52.174Z,673.00
2024-01-15T08:33:52.429Z,675.00
2024-01-15T08:34:52.220Z,665.00
2024-01-15T08:35:52.159Z,664.00
2024-01-15T08:36:52.347Z,657.00
2024-01-15T08:37:52.349Z,658.00
2024-01-15T08:38:52.313Z,651.00
2024-01-15T08:39:52.651Z,640.00
2024-01-15T08:40:52.406Z,645.00
2024-01-15T08:41:52.773Z,640.00
2024-01-15T08:42:52.797Z,644.00
2024-01-15T08:43:53.313Z,644.00
2024-01-15T08:44:52.776Z,647.00
2024-01-15T08:45:52.533Z,651.00
2024-01-15T08:46:52.588Z,651.00
2024-01-15T08:47:53.000Z,653.00
2024-01-15T08:48:52.876Z,655.00
2024-01-15T08:49:52.763Z,659.00
2024-01-15T08:50:53.395Z,646.00
2024-01-15T08:51:54.184Z,652.00
2024-01-15T08:52:53.322Z,651.00
2024-01-15T08:53:53.317Z,651.00
2024-01-15T08:54:53.291Z,653.00
2024-01-15T08:55:53.126Z,660.00
2024-01-15T08:56:53.555Z,664.00
2024-01-15T08:57:52.888Z,680.00
2024-01-15T08:58:52.880Z,688.00
2024-01-15T08:59:53.985Z,692.00
2024-01-15T09:00:52.947Z,697.00
2024-01-15T09:01:53.315Z,713.00
2024-01-15T09:02:53.162Z,719.00
2024-01-15T09:03:53.505Z,716.00
2024-01-15T09:04:52.953Z,731.00
2024-01-15T09:05:52.898Z,734.00
2024-01-15T09:06:53.351Z,745.00
2024-01-15T09:07:52.875Z,752.00
2024-01-15T09:08:55.796Z,753.00
2024-01-15T09:09:53.343Z,753.00
2024-01-15T09:10:59.778Z,756.00
2024-01-15T09:11:53.301Z,754.00
2024-01-15T09:12:53.274Z,755.00
2024-01-15T09:13:52.888Z,757.00
2024-01-15T09:14:52.905Z,766.00
2024-01-15T09:15:53.040Z,763.00
2024-01-15T09:16:53.420Z,767.00
2024-01-15T09:17:52.916Z,778.00
2024-01-15T09:18:53.349Z,761.00
2024-01-15T09:19:52.935Z,763.00
2024-01-15T09:20:52.964Z,762.00
2024-01-15T09:21:53.067Z,767.00
2024-01-15T09:22:53.101Z,770.00
2024-01-15T09:23:53.839Z,783.00
2024-01-15T09:24:56.517Z,773.00
2024-01-15T09:25:53.237Z,773.00
2024-01-15T09:26:53.787Z,774.00
2024-01-15T09:27:53.319Z,776.00
2024-01-15T09:28:53.281Z,775.00
2024-01-15T09:29:53.289Z,770.00
2024-01-15T09:30:54.402Z,776.00
2024-01-15T09:31:54.500Z,782.00
2024-01-15T09:32:53.748Z,788.00
2024-01-15T09:33:54.186Z,784.00
2024-01-15T09:34:53.819Z,786.00
2024-01-15T09:35:53.333Z,792.00
2024-01-15T09:36:54.176Z,801.00
2024-01-15T09:37:54.268Z,804.00
2024-01-15T09:38:54.066Z,791.00
2024-01-15T09:39:54.080Z,787.00
2024-01-15T09:40:54.154Z,802.00
2024-01-15T09:41:53.801Z,788.00
2024-01-15T09:42:53.747Z,792.00
2024-01-15T09:43:53.753Z,809.00
2024-01-15T09:44:53.848Z,805.00
2024-01-15T09:45:57.080Z,810.00
2024-01-15T09:46:54.393Z,804.00
2024-01-15T09:47:54.360Z,810.00
2024-01-15T09:48:53.957Z,803.00
2024-01-15T09:49:54.425Z,810.00
2024-01-15T09:50:53.926Z,817.00
2024-01-15T09:52:02.562Z,823.00
2024-01-15T09:52:55.146Z,812.00
2024-01-15T09:53:53.856Z,823.00
2024-01-15T09:54:53.866Z,824.00
2024-01-15T09:55:53.855Z,818.00
2024-01-15T09:56:53.858Z,824.00
2024-01-15T09:57:53.973Z,822.00
2024-01-15T09:58:53.971Z,827.00
2024-01-15T09:59:54.304Z,819.00
2024-01-15T10:00:57.318Z,830.00
2024-01-15T10:01:54.927Z,830.00
2024-01-15T10:02:54.027Z,823.00
2024-01-15T10:03:54.876Z,831.00
2024-01-15T10:04:54.104Z,824.00
2024-01-15T10:05:54.077Z,836.00
2024-01-15T10:06:54.154Z,839.00
2024-01-15T10:07:54.076Z,827.00
2024-01-15T10:08:54.177Z,834.00
2024-01-15T10:09:54.239Z,832.00
2024-01-15T10:10:54.318Z,835.00
2024-01-15T10:11:54.089Z,840.00
2024-01-15T10:12:54.378Z,840.00
2024-01-15T10:13:57.596Z,840.00
2024-01-15T10:14:54.066Z,841.00
2024-01-15T10:15:54.211Z,839.00
2024-01-15T10:16:54.379Z,833.00
2024-01-15T10:17:54.140Z,841.00
2024-01-15T10:18:54.922Z,835.00
2024-01-15T10:19:54.386Z,840.00
2024-01-15T10:20:54.154Z,839.00
2024-01-15T10:21:54.177Z,839.00
2024-01-15T10:22:54.317Z,838.00
2024-01-15T10:23:54.095Z,830.00
2024-01-15T10:24:54.169Z,846.00
2024-01-15T10:25:54.096Z,837.00
2024-01-15T10:26:54.315Z,844.00
2024-01-15T10:27:54.437Z,828.00
2024-01-15T10:28:54.106Z,834.00
2024-01-15T10:29:54.091Z,832.00
2024-01-15T10:30:55.120Z,818.00
2024-01-15T10:31:55.512Z,803.00
2024-01-15T10:32:54.387Z,795.00
2024-01-15T10:33:54.453Z,778.00
2024-01-15T10:34:54.560Z,769.00
2024-01-15T10:35:54.173Z,746.00
2024-01-15T10:36:54.494Z,735.00
2024-01-15T10:37:55.182Z,732.00
2024-01-15T10:38:56.176Z,729.00
2024-01-15T10:39:54.406Z,713.00
2024-01-15T10:41:01.629Z,712.00
2024-01-15T10:41:57.448Z,701.00
2024-01-15T10:42:54.433Z,708.00
2024-01-15T10:44:01.668Z,700.00
2024-01-15T10:44:54.273Z,711.00
2024-01-15T10:45:54.328Z,699.00
2024-01-15T10:46:55.657Z,694.00
2024-01-15T10:47:54.850Z,698.00
2024-01-15T10:48:54.759Z,689.00
2024-01-15T10:49:54.913Z,684.00
2024-01-15T10:50:54.829Z,683.00
2024-01-15T10:51:54.508Z,684.00
2024-01-15T10:52:55.288Z,684.00
2024-01-15T10:53:55.301Z,667.00
2024-01-15T10:54:55.440Z,668.00
2024-01-15T10:55:55.140Z,663.00
2024-01-15T10:56:54.761Z,679.00
2024-01-15T10:57:55.105Z,682.00
2024-01-15T10:58:58.057Z,685.00
2024-01-15T10:59:55.866Z,686.00
2024-01-15T11:00:58.486Z,686.00
2024-01-15T11:01:56.682Z,686.00
2024-01-15T11:02:54.859Z,690.00
2024-01-15T11:03:55.298Z,700.00
2024-01-15T11:04:56.595Z,714.00
2024-01-15T11:05:56.447Z,737.00
2024-01-15T11:06:56.405Z,688.00
2024-01-15T11:07:55.360Z,698.00
2024-01-15T11:08:55.249Z,713.00
2024-01-15T11:09:55.516Z,730.00
2024-01-15T11:10:55.888Z,755.00
2024-01-15T11:11:56.359Z,763.00
2024-01-15T11:12:57.245Z,772.00
2024-01-15T11:13:57.063Z,779.00
2024-01-15T11:14:56.430Z,779.00
2024-01-15T11:15:55.952Z,780.00
2024-01-15T11:16:55.838Z,782.00
2024-01-15T11:17:55.903Z,790.00
2024-01-15T11:18:56.434Z,801.00
2024-01-15T11:19:56.488Z,813.00
2024-01-15T11:20:56.852Z,829.00
2024-01-15T11:21:56.028Z,828.00
2024-01-15T11:22:55.791Z,840.00
2024-01-15T11:23:56.371Z,837.00
2024-01-15T11:24:56.005Z,844.00
2024-01-15T11:25:56.106Z,831.00
2024-01-15T11:26:55.552Z,850.00
2024-01-15T11:27:55.662Z,844.00
2024-01-15T11:28:55.844Z,867.00
2024-01-15T11:29:55.648Z,873.00
2024-01-15T11:30:56.587Z,877.00
2024-01-15T11:31:55.984Z,902.00
2024-01-15T11:32:55.963Z,918.00
2024-01-15T11:33:56.063Z,928.00
2024-01-15T11:34:55.927Z,914.00
2024-01-15T11:35:55.806Z,910.00
2024-01-15T11:36:55.997Z,898.00
2024-01-15T11:37:56.525Z,901.00
2024-01-15T11:38:56.022Z,902.00
2024-01-15T11:39:56.162Z,894.00
2024-01-15T11:40:56.516Z,907.00
2024-01-15T11:41:56.514Z,897.00
2024-01-15T11:42:57.288Z,898.00
2024-01-15T11:43:56.471Z,905.00
2024-01-15T11:44:56.875Z,908.00
2024-01-15T11:45:56.539Z,905.00
2024-01-15T11:46:56.514Z,900.00
2024-01-15T11:47:56.890Z,910.00
2024-01-15T11:48:56.706Z,913.00
2024-01-15T11:49:56.762Z,913.00
2024-01-15T11:50:56.734Z,923.00
2024-01-15T11:51:56.816Z,924.00
2024-01-15T11:52:56.890Z,937.00
2024-01-15T11:53:56.861Z,937.00
2024-01-15T11:55:04.306Z,926.00
2024-01-15T11:55:57.357Z,927.00
2024-01-15T11:56:56.909Z,927.00
2024-01-15T11:57:56.935Z,930.00
2024-01-15T11:58:56.918Z,938.00
2024-01-15T11:59:57.356Z,938.00
2024-01-15T12:00:57.154Z,951.00
2024-01-15T12:01:56.969Z,951.00
2024-01-15T12:02:57.459Z,952.00
2024-01-15T12:03:57.009Z,954.00
2024-01-15T12:04:56.956Z,965.00
2024-01-15T12:05:57.517Z,966.00
2024-01-15T12:06:57.053Z,973.00
2024-01-15T12:07:57.445Z,987.00
2024-01-15T12:08:56.971Z,986.00
2024-01-15T12:09:57.925Z,984.00
2024-01-15T12:10:57.488Z,993.00
2024-01-15T12:11:56.909Z,1002.00
2024-01-15T12:12:56.957Z,995.00
2024-01-15T12:13:56.913Z,1001.00
2024-01-15T12:14:57.937Z,1015.00
2024-01-15T12:15:57.536Z,1018.00
2024-01-15T12:16:56.931Z,1038.00
2024-01-15T12:17:57.520Z,1053.00
2024-01-15T12:18:57.009Z,1062.00
2024-01-15T12:19:56.975Z,1059.00
2024-01-15T12:20:56.943Z,1086.00
2024-01-15T12:21:56.937Z,1078.00
2024-01-15T12:23:02.044Z,1088.00
2024-01-15T12:23:56.946Z,1088.00
2024-01-15T12:24:56.988Z,1090.00
2024-01-15T12:25:56.947Z,1095.00
2024-01-15T12:26:56.953Z,1098.00
2024-01-15T12:27:57.478Z,1113.00
2024-01-15T12:28:58.008Z,1127.00
2024-01-15T12:29:56.960Z,1129.00
2024-01-15T12:30:57.131Z,1121.00
2024-01-15T12:31:57.137Z,1141.00
2024-01-15T12:32:57.611Z,1142.00
2024-01-15T12:33:57.042Z,1147.00
2024-01-15T12:34:57.451Z,1158.00
2024-01-15T12:35:56.973Z,1151.00
2024-01-15T12:36:56.971Z,1164.00
2024-01-15T12:37:57.450Z,1164.00
2024-01-15T12:38:56.975Z,1165.00
2024-01-15T12:39:57.000Z,1165.00
2024-01-15T12:40:57.016Z,1168.00
2024-01-15T12:41:56.965Z,1174.00
2024-01-15T12:42:56.980Z,1171.00
2024-01-15T12:43:56.989Z,1188.00
2024-01-15T12:44:57.460Z,1188.00
2024-01-15T12:45:57.908Z,1193.00
2024-01-15T12:46:56.980Z,1202.00
2024-01-15T12:47:57.482Z,1197.00
2024-01-15T12:48:57.151Z,1204.00
2024-01-15T12:50:05.590Z,1207.00
2024-01-15T12:50:56.996Z,1208.00
2024-01-15T12:51:57.049Z,1210.00
2024-01-15T12:52:57.531Z,1211.00
2024-01-15T12:53:57.479Z,1210.00
2024-01-15T12:54:57.001Z,1212.00
2024-01-15T12:55:56.996Z,1219.00
2024-01-15T12:56:57.817Z,1205.00
2024-01-15T12:57:57.539Z,1207.00
2024-01-15T12:58:56.997Z,1200.00
2024-01-15T12:59:57.002Z,1195.00
2024-01-15T13:00:57.795Z,1204.00
2024-01-15T13:01:57.409Z,1195.00
2024-01-15T13:02:57.510Z,1200.00
2024-01-15T13:03:58.106Z,1193.00
2024-01-15T13:04:57.582Z,1187.00
2024-01-15T13:05:57.684Z,1190.00
2024-01-15T13:06:57.611Z,1188.00
2024-01-15T13:07:58.167Z,1195.00
2024-01-15T13:08:57.011Z,1200.00
2024-01-15T13:09:57.099Z,1199.00
2024-01-15T13:10:57.521Z,1202.00
2024-01-15T13:11:57.511Z,1196.00
2024-01-15T13:12:57.787Z,1193.00
2024-01-15T13:13:57.514Z,1196.00
2024-01-15T13:14:57.510Z,1201.00
2024-01-15T13:15:57.609Z,1193.00
2024-01-15T13:16:57.903Z,1192.00
2024-01-15T13:17:57.942Z,1198.00
2024-01-15T13:18:57.857Z,1199.00
2024-01-15T13:19:57.885Z,1197.00